Aeroporto :
LOGIN :

Iscrizione | Disclaimer

   EN    FR    IT 

 










Sommario :    VFR   VFR Marginale   IFR   IFR Intensivo   IFR Molto Intensivo
Visibilità : 
Base nubi : 
>= 8 km
>= 3000ft
5 / 8 km
1000 / 3000 ft
1500m / 5 km
500 / 1000 ft
800 / 1500m
200 / 500 ft
< 800m
< 200 ft
Simboli :   Temporali  Nebbia  Neve Forte  Precipitazioni Forti  Vento > 20 kt
SIGMETs :   Varie  Temporali  Ghiacco  Turbolenza  Onda orograficha  Ceneri Vulcaniche






- Altitudine del aeroporto : 49 ft
- Codice IATA : GLZ


EHGR - Gilze-Rijen Airbase

ULTIMO METAR :
  • 212255Z AUTO 33004KT 280V040 0300 FG VV000 01/01 Q1039 RED

METARs OBSOLETI :
  • 212225Z AUTO VRB02KT 0200 FG VV000 00/00 Q1039 RED
  • 212155Z AUTO VRB01KT 0200 FG VV000 00/00 Q1039 RED
  • 212125Z AUTO 28004KT 250V340 0200 FZFG VV000 M00/M00 Q1039 RED RMK CB INFO NOT AVBL
  • 212055Z AUTO VRB02KT 0200 FZFG VV000 M00/M00 Q1039 RED RMK CB INFO NOT AVBL
  • 212041Z AUTO 25003KT 180V290 0150 FZFG VV000 M00/M00 Q1040 RED RMK CB INFO NOT AVBL
  • 212025Z AUTO 24003KT 150V260 0200 FG VV000 00/00 Q1039 RED

TAF TAF EHGR
Valido dal 21 a 14 ore il 22 a 02 ore UTC


211341Z 2114/2202 24004KT 1500 BR BKN002
PROB30
TEMPO 2115/2118 6000 NSW FEW005
BECMG 2118/2121 0800 FG FZFG BKN001



MetMap, La meteo Aeronautica in un colpo d'occhio ! - Copyright ORBIFLY Dicembre 2007 - Disclaimer

ORBIFLY MET'MAP TEAM :

Programmazione e sviluppo : Alexandra Zaïnal
Concezione : Baudouin d'Aumeries
Aiuto per la programmazione : Marc-Olivier Méhu
Supporto tecnico e logistico : Manuel Goepfert
Aiuto per la traduzione : Arnaldo La Scala

Contatto : metmap@orbifly.com




FONTI E CREDITI :

   NOAA